Time;durP1;ratioP1;P1;durP2;ratioP2;P2;SDS_P1;SDS_P2;PMS_P1;PMS_P2;Temp;Humidity;BMP_temperature;BMP_pressure;BME280_temperature;BME280_humidity;BME280_pressure;Samples;Min_cycle;Max_cycle;Signal;HPM_P1;HPM_P2
2021/08/13 00:00:35;;;;;;;20.70;18.70;;;;;;;22.12;63.35;101518.34;5058348;28;20181;-73
2021/08/13 00:03:00;;;;;;;21.90;19.80;;;;;;;22.29;63.13;101519.69;5058643;28;20186;-71
2021/08/13 00:05:25;;;;;;;20.30;18.17;;;;;;;22.64;62.05;101517.88;5058148;28;20181;-71
2021/08/13 00:07:51;;;;;;;21.00;19.00;;;;;;;22.71;61.54;101508.81;5058461;28;20468;-71
2021/08/13 00:10:16;;;;;;;22.47;20.47;;;;;;;22.63;61.82;101508.16;5058456;28;20165;-72
2021/08/13 00:12:41;;;;;;;21.87;18.60;;;;;;;22.46;61.29;101506.84;5060352;28;20240;-72
2021/08/13 00:15:08;;;;;;;20.67;18.87;;;;;;;22.56;60.86;101503.94;5058041;28;20451;-71
2021/08/13 00:17:34;;;;;;;20.20;18.20;;;;;;;22.59;60.63;101511.81;5061235;28;20173;-71
2021/08/13 00:19:59;;;;;;;21.00;18.40;;;;;;;22.53;61.41;101496.91;5078433;28;20419;-71
2021/08/13 00:22:24;;;;;;;19.93;18.10;;;;;;;22.69;60.46;101505.31;5077981;28;20187;-72
2021/08/13 00:24:51;;;;;;;19.00;17.00;;;;;;;22.51;61.63;101502.25;5072756;28;20177;-71
2021/08/13 00:27:17;;;;;;;19.23;17.43;;;;;;;22.32;61.96;101504.50;5062219;28;20258;-72
2021/08/13 00:29:42;;;;;;;20.50;18.10;;;;;;;22.43;62.08;101506.06;5062099;28;20416;-72
2021/08/13 00:32:07;;;;;;;20.40;18.57;;;;;;;22.35;62.96;101511.56;5079362;28;20429;-72
2021/08/13 00:34:33;;;;;;;27.27;24.77;;;;;;;22.55;62.57;101513.66;5081977;28;20219;-71
2021/08/13 00:36:58;;;;;;;22.60;20.50;;;;;;;22.30;63.33;101509.00;5082077;28;20169;-71
2021/08/13 00:39:23;;;;;;;22.73;20.73;;;;;;;22.47;62.36;101519.19;5064866;28;20186;-71
2021/08/13 00:41:49;;;;;;;19.97;18.17;;;;;;;22.28;62.96;101517.94;5067622;28;20214;-70
2021/08/13 00:44:14;;;;;;;29.07;26.50;;;;;;;22.52;62.67;101519.09;5081644;28;20546;-71
2021/08/13 00:46:39;;;;;;;30.50;27.40;;;;;;;22.43;62.81;101525.50;5082413;28;20576;-71
2021/08/13 00:49:05;;;;;;;25.50;23.13;;;;;;;22.51;62.16;101525.31;5067041;28;20181;-72
2021/08/13 00:51:30;;;;;;;23.07;21.07;;;;;;;22.46;62.42;101525.44;5061729;28;20240;-72
2021/08/13 00:53:56;;;;;;;22.33;20.43;;;;;;;22.42;62.80;101522.91;5062082;28;20209;-71
2021/08/13 00:56:21;;;;;;;20.13;18.33;;;;;;;22.32;62.64;101516.94;5060821;28;20476;-71
2021/08/13 00:58:47;;;;;;;24.13;22.00;;;;;;;22.23;63.75;101527.81;5067463;28;20212;-71
2021/08/13 01:01:12;;;;;;;21.60;19.67;;;;;;;22.25;63.75;101526.84;5081049;28;20184;-74
2021/08/13 01:03:39;;;;;;;19.87;18.10;;;;;;;22.32;63.18;101517.78;5081296;28;20422;-70
2021/08/13 01:06:10;;;;;;;19.73;18.13;;;;;;;22.23;63.57;101518.06;5081581;28;20554;-71
2021/08/13 01:08:35;;;;;;;20.47;18.70;;;;;;;22.66;61.89;101526.66;5071441;28;20486;-71
2021/08/13 01:11:06;;;;;;;21.00;18.80;;;;;;;22.49;62.42;101533.31;5061473;28;20506;-71
2021/08/13 01:13:58;;;;;;;19.47;17.57;;;;;;;22.63;61.83;101543.56;5061109;28;20208;-70
2021/08/13 01:16:25;;;;;;;20.40;18.37;;;;;;;22.70;61.33;101542.50;5061872;28;20431;-71
2021/08/13 01:19:25;;;;;;;19.27;17.43;;;;;;;22.78;60.91;101531.63;5061194;28;20481;-71
2021/08/13 01:21:55;;;;;;;21.87;19.90;;;;;;;22.80;61.38;101534.22;5043414;28;20427;-72
2021/08/13 01:24:24;;;;;;;19.33;17.53;;;;;;;22.80;61.39;101543.09;5060349;28;20456;-72
2021/08/13 01:26:59;;;;;;;19.63;17.63;;;;;;;22.71;62.07;101530.91;5080403;28;20451;-74
2021/08/13 01:29:42;;;;;;;18.93;17.23;;;;;;;22.82;62.54;101525.28;5080730;28;20426;-74
2021/08/13 01:32:16;;;;;;;18.67;16.93;;;;;;;22.94;62.37;101528.53;5060753;28;20420;-74
2021/08/13 01:34:44;;;;;;;19.10;17.50;;;;;;;22.99;62.33;101518.63;5061064;28;20424;-73
2021/08/13 01:37:10;;;;;;;18.13;16.33;;;;;;;22.93;62.14;101526.78;5060361;28;20744;-72
2021/08/13 01:39:36;;;;;;;20.03;18.07;;;;;;;22.94;62.22;101520.56;5078801;28;20430;-72
2021/08/13 01:42:03;;;;;;;19.37;17.57;;;;;;;22.91;62.45;101525.94;5061347;28;20408;-71
2021/08/13 01:44:29;;;;;;;19.07;17.47;;;;;;;22.83;62.82;101529.69;5060680;28;20170;-73
2021/08/13 01:46:58;;;;;;;18.27;16.70;;;;;;;22.92;62.81;101535.66;5060781;28;20424;-71
2021/08/13 01:49:24;;;;;;;19.57;17.57;;;;;;;22.92;62.77;101527.69;5062862;28;20176;-72
2021/08/13 01:51:50;;;;;;;20.97;18.87;;;;;;;22.72;63.81;101539.78;5043588;28;20424;-72
2021/08/13 01:54:16;;;;;;;19.50;17.87;;;;;;;22.76;63.41;101544.09;5060543;28;20201;-72
2021/08/13 01:56:42;;;;;;;19.97;17.40;;;;;;;22.60;63.53;101527.72;5060406;28;20454;-73
2021/08/13 01:59:07;;;;;;;20.80;18.87;;;;;;;22.76;62.94;101528.16;5076450;28;20181;-73
2021/08/13 02:01:33;;;;;;;21.43;19.63;;;;;;;22.93;62.66;101517.00;5075909;28;20272;-72
2021/08/13 02:03:59;;;;;;;19.60;17.77;;;;;;;22.80;63.35;101523.59;5080072;28;20573;-72
2021/08/13 02:06:25;;;;;;;20.57;18.67;;;;;;;22.64;64.12;101529.38;5077563;28;20460;-73
2021/08/13 02:08:52;;;;;;;22.17;19.90;;;;;;;22.72;63.21;101523.84;5059497;28;20507;-71
2021/08/13 02:11:18;;;;;;;22.80;20.80;;;;;;;22.74;63.67;101534.41;5060669;28;20485;-72
2021/08/13 02:13:43;;;;;;;22.10;20.00;;;;;;;22.79;63.08;101522.72;5062054;28;20466;-71
2021/08/13 02:16:11;;;;;;;21.87;19.67;;;;;;;22.86;62.46;101521.63;5059567;28;20178;-72
2021/08/13 02:18:38;;;;;;;21.40;19.07;;;;;;;22.71;63.24;101527.41;5059552;28;20457;-71
2021/08/13 02:21:07;;;;;;;22.93;20.83;;;;;;;22.77;62.85;101527.25;5059405;28;20444;-71
2021/08/13 02:23:33;;;;;;;23.10;20.77;;;;;;;22.65;63.50;101535.53;5062630;28;20467;-71
2021/08/13 02:25:58;;;;;;;22.50;20.47;;;;;;;22.75;63.11;101526.41;5080273;28;20403;-71
2021/08/13 02:28:24;;;;;;;21.67;19.67;;;;;;;22.76;62.94;101524.59;5079853;28;20188;-72
2021/08/13 02:30:49;;;;;;;21.17;19.37;;;;;;;22.50;63.78;101524.44;5070029;28;20209;-72
2021/08/13 02:33:14;;;;;;;21.40;19.30;;;;;;;22.58;64.01;101523.34;5060049;28;20600;-73
2021/08/13 02:35:45;;;;;;;21.43;19.20;;;;;;;22.57;63.56;101510.97;5059788;28;20609;-71
2021/08/13 02:38:14;;;;;;;22.57;20.53;;;;;;;22.41;63.62;101515.84;5070379;28;20546;-72
2021/08/13 02:40:48;;;;;;;21.63;19.43;;;;;;;22.38;63.71;101524.78;5075705;28;20521;-70
2021/08/13 02:43:24;;;;;;;20.77;18.67;;;;;;;22.48;63.11;101517.44;5078933;28;20415;-71
2021/08/13 02:45:53;;;;;;;24.33;22.20;;;;;;;22.25;63.80;101515.38;5079016;28;20435;-69
2021/08/13 02:48:18;;;;;;;23.70;20.10;;;;;;;22.61;62.75;101516.16;5077799;28;20496;-70
2021/08/13 02:50:44;;;;;;;22.80;20.80;;;;;;;22.47;63.04;101508.56;5070988;28;20460;-71
2021/08/13 02:53:13;;;;;;;23.57;21.47;;;;;;;22.35;63.74;101511.56;5058990;28;20235;-72
2021/08/13 02:55:42;;;;;;;23.70;21.60;;;;;;;22.44;63.42;101510.47;5059405;28;20555;-71
2021/08/13 02:58:09;;;;;;;23.93;21.70;;;;;;;22.36;63.65;101510.66;5067916;28;20530;-70
2021/08/13 03:00:37;;;;;;;23.77;21.47;;;;;;;22.28;64.21;101510.81;5071216;28;20424;-71
2021/08/13 03:03:03;;;;;;;22.77;20.63;;;;;;;22.16;64.54;101505.84;5059288;28;20416;-71
2021/08/13 03:05:30;;;;;;;22.07;19.97;;;;;;;22.18;64.21;101504.03;5059116;28;20431;-71
2021/08/13 03:07:55;;;;;;;23.23;21.07;;;;;;;22.15;64.45;101504.09;5059167;28;20219;-72
2021/08/13 03:10:20;;;;;;;24.90;19.97;;;;;;;22.13;64.08;101506.81;5059245;28;20432;-70
2021/08/13 03:12:47;;;;;;;23.80;21.67;;;;;;;22.12;63.96;101507.72;5059368;28;20202;-73
2021/08/13 03:15:12;;;;;;;22.63;20.53;;;;;;;22.29;63.16;101504.59;5067165;28;20218;-72
2021/08/13 03:17:38;;;;;;;22.40;20.30;;;;;;;21.97;64.32;101502.81;5078215;28;20416;-70
2021/08/13 03:20:04;;;;;;;24.37;22.17;;;;;;;21.89;64.34;101507.44;5076517;28;20192;-70
2021/08/13 03:22:30;;;;;;;24.70;22.13;;;;;;;21.64;64.73;101502.75;5058099;28;20435;-71
2021/08/13 03:24:55;;;;;;;23.53;21.17;;;;;;;21.92;64.44;101500.28;5058590;28;20460;-71
2021/08/13 03:27:22;;;;;;;22.10;20.00;;;;;;;21.90;64.23;101503.88;5059157;28;20201;-71
2021/08/13 03:29:47;;;;;;;22.93;20.67;;;;;;;21.69;64.54;101501.72;5058219;28;20201;-72
2021/08/13 03:32:13;;;;;;;22.30;20.10;;;;;;;21.90;64.11;101507.41;5067895;28;20530;-71
2021/08/13 03:34:38;;;;;;;23.70;21.40;;;;;;;22.12;63.25;101498.88;5078891;28;20257;-71
2021/08/13 03:37:04;;;;;;;22.10;20.10;;;;;;;22.09;62.85;101505.13;5073962;28;20169;-71
2021/08/13 03:39:29;;;;;;;24.70;22.40;;;;;;;22.33;61.94;101506.25;5057726;28;20231;-71
2021/08/13 03:41:56;;;;;;;25.17;23.07;;;;;;;22.45;61.45;101515.72;5073684;28;20169;-70
2021/08/13 03:44:21;;;;;;;23.87;21.47;;;;;;;21.98;63.87;101521.34;5078404;28;20169;-71
2021/08/13 03:46:46;;;;;;;22.83;20.73;;;;;;;21.86;63.77;101508.38;5078518;28;20415;-71
2021/08/13 03:49:11;;;;;;;23.50;21.30;;;;;;;21.70;64.22;101505.25;5069296;28;20224;-71
2021/08/13 03:51:37;;;;;;;23.60;21.30;;;;;;;22.05;63.39;101503.47;5058484;28;20243;-71
2021/08/13 03:54:03;;;;;;;21.70;19.53;;;;;;;21.95;63.81;101507.31;5058224;28;20205;-72
2021/08/13 03:56:28;;;;;;;22.90;21.00;;;;;;;21.92;64.23;101510.00;5058782;28;20161;-71
2021/08/13 03:58:53;;;;;;;22.97;20.67;;;;;;;21.79;64.36;101506.81;5058693;28;20402;-71
2021/08/13 04:01:19;;;;;;;23.63;21.07;;;;;;;21.80;64.70;101498.81;5058279;28;20170;-71
2021/08/13 04:03:44;;;;;;;22.30;20.00;;;;;;;21.60;65.46;101501.09;5058296;28;20177;-72
2021/08/13 04:06:09;;;;;;;24.17;21.67;;;;;;;21.93;64.29;101509.09;5067011;28;20553;-71
2021/08/13 04:08:35;;;;;;;23.67;21.50;;;;;;;22.13;63.65;101501.47;5078302;28;20338;-72
2021/08/13 04:11:00;;;;;;;25.37;22.97;;;;;;;22.13;63.75;101504.16;5070497;28;20227;-72
2021/08/13 04:13:25;;;;;;;25.23;22.97;;;;;;;22.26;62.92;101510.00;5057960;28;20616;-71
2021/08/13 04:15:51;;;;;;;24.47;22.17;;;;;;;22.16;63.43;101509.41;5060650;28;20624;-71
2021/08/13 04:18:16;;;;;;;25.93;23.33;;;;;;;22.29;63.29;101520.53;5058573;28;20174;-72
2021/08/13 04:20:42;;;;;;;25.83;23.23;;;;;;;22.08;63.63;101529.94;5058127;28;20449;-71
2021/08/13 04:23:07;;;;;;;26.17;23.50;;;;;;;22.04;64.01;101523.84;5066198;28;20221;-71
2021/08/13 04:25:32;;;;;;;26.53;23.93;;;;;;;21.97;64.10;101524.91;5078362;28;20176;-71
2021/08/13 04:27:58;;;;;;;26.20;23.90;;;;;;;22.07;64.05;101527.31;5077992;28;20204;-72
2021/08/13 04:30:24;;;;;;;27.33;25.00;;;;;;;22.25;63.37;101528.66;5075492;28;20200;-70
2021/08/13 04:32:49;;;;;;;25.53;23.00;;;;;;;22.42;63.09;101522.91;5077879;28;20275;-71
2021/08/13 04:35:15;;;;;;;27.10;24.57;;;;;;;22.27;63.45;101513.53;5077988;28;20876;-71
2021/08/13 04:37:40;;;;;;;26.87;24.33;;;;;;;23.18;61.46;101511.00;5077437;28;20300;-71
2021/08/13 04:40:06;;;;;;;24.60;22.30;;;;;;;23.79;58.75;101502.81;5077123;28;20252;-71
2021/08/13 04:42:32;;;;;;;25.40;22.90;;;;;;;24.23;57.53;101515.53;5082105;28;20236;-70
2021/08/13 04:44:57;;;;;;;23.60;21.30;;;;;;;23.74;58.61;101519.88;5097882;28;20426;-71
2021/08/13 04:47:23;;;;;;;24.07;21.87;;;;;;;23.40;59.91;101524.47;5082309;28;20491;-71
2021/08/13 04:49:48;;;;;;;23.60;21.10;;;;;;;23.48;59.56;101527.78;5077935;28;20247;-71
2021/08/13 04:52:14;;;;;;;22.40;20.40;;;;;;;23.67;58.88;101514.72;5064029;28;20494;-71
2021/08/13 04:54:39;;;;;;;23.63;20.30;;;;;;;24.14;57.54;101514.09;5058117;28;20231;-74
2021/08/13 04:57:04;;;;;;;22.23;20.30;;;;;;;25.03;55.35;101517.09;5065829;28;20392;-74
2021/08/13 04:59:30;;;;;;;21.07;18.93;;;;;;;25.12;54.80;101515.88;5093231;28;20184;-75
2021/08/13 05:01:55;;;;;;;20.93;18.93;;;;;;;25.76;53.07;101516.88;5080497;28;20462;-75
2021/08/13 05:04:20;;;;;;;19.03;17.33;;;;;;;24.78;55.63;101526.03;5057021;28;20201;-75
2021/08/13 05:06:46;;;;;;;21.63;19.20;;;;;;;24.70;55.15;101525.44;5057348;28;20453;-74
2021/08/13 05:09:11;;;;;;;19.70;17.90;;;;;;;23.89;57.58;101524.69;5057489;28;20559;-73
2021/08/13 05:11:36;;;;;;;20.77;19.13;;;;;;;23.99;56.76;101511.94;5059787;28;20227;-73
2021/08/13 05:14:03;;;;;;;21.90;19.90;;;;;;;24.16;56.46;101522.03;5067591;28;20478;-75
2021/08/13 05:16:28;;;;;;;20.77;18.97;;;;;;;23.99;56.71;101523.47;5069493;28;20205;-74
2021/08/13 05:18:53;;;;;;;21.87;19.67;;;;;;;23.70;57.82;101527.94;5071540;28;20509;-73
2021/08/13 05:21:19;;;;;;;28.27;21.77;;;;;;;24.11;55.75;101522.19;5061677;28;20169;-73
2021/08/13 05:23:44;;;;;;;22.27;20.07;;;;;;;24.10;56.31;101524.88;5064873;28;20251;-73
2021/08/13 05:26:09;;;;;;;21.57;19.67;;;;;;;24.20;56.16;101523.66;5070765;28;20185;-73
2021/08/13 05:28:35;;;;;;;21.60;19.40;;;;;;;24.06;55.75;101529.47;5061808;28;20256;-74
2021/08/13 05:31:00;;;;;;;21.33;19.17;;;;;;;23.55;56.98;101528.44;5060312;28;20251;-74
2021/08/13 05:33:25;;;;;;;21.23;19.07;;;;;;;23.79;56.94;101532.09;5060354;28;20205;-73
2021/08/13 05:35:51;;;;;;;20.10;18.50;;;;;;;25.13;53.12;101528.28;5061524;28;20185;-74
2021/08/13 05:38:16;;;;;;;19.43;17.63;;;;;;;26.44;49.75;101528.25;5062291;28;20239;-72
2021/08/13 05:40:42;;;;;;;19.33;17.10;;;;;;;27.84;46.06;101526.13;5072946;28;20269;-73
2021/08/13 05:43:07;;;;;;;18.30;16.60;;;;;;;28.79;43.46;101529.31;5081070;28;20268;-73
2021/08/13 05:45:32;;;;;;;20.50;16.40;;;;;;;28.65;44.25;101528.22;5067093;28;20180;-69
2021/08/13 05:47:58;;;;;;;16.50;14.80;;;;;;;28.73;42.79;101533.19;5079143;28;20218;-72
2021/08/13 05:50:23;;;;;;;16.00;14.37;;;;;;;27.80;44.92;101523.69;5072129;28;20521;-71
2021/08/13 05:52:48;;;;;;;15.37;14.00;;;;;;;29.45;41.60;101514.88;5070723;28;20585;-73
2021/08/13 05:55:14;;;;;;;14.27;12.80;;;;;;;28.58;43.06;101521.44;5080051;28;20173;-72
2021/08/13 05:57:41;;;;;;;13.80;12.60;;;;;;;29.19;41.46;101525.25;5080700;28;20173;-72
2021/08/13 06:00:07;;;;;;;13.80;12.60;;;;;;;29.51;39.94;101513.66;5080169;28;20497;-73
2021/08/13 06:02:33;;;;;;;13.87;12.50;;;;;;;29.06;41.45;101538.53;5080246;28;20434;-72
2021/08/13 06:04:59;;;;;;;12.43;11.43;;;;;;;30.16;38.86;101524.16;5080385;28;20431;-71
2021/08/13 06:07:24;;;;;;;13.77;12.20;;;;;;;29.66;39.76;101525.31;5080371;28;20480;-71
2021/08/13 06:09:50;;;;;;;12.77;11.57;;;;;;;29.09;40.16;101526.72;5080172;28;20230;-71
2021/08/13 06:12:15;;;;;;;12.97;11.73;;;;;;;29.38;40.42;101526.94;5079766;28;20161;-71
2021/08/13 06:14:40;;;;;;;13.17;11.13;;;;;;;29.28;39.74;101529.28;5080126;28;20211;-70
2021/08/13 06:17:06;;;;;;;12.33;11.33;;;;;;;30.54;37.58;101525.47;5080028;28;20168;-71
2021/08/13 06:19:32;;;;;;;11.73;10.70;;;;;;;29.05;40.02;101517.09;5080667;28;20165;-72
2021/08/13 06:21:57;;;;;;;11.13;10.13;;;;;;;28.67;40.72;101525.47;5079935;28;20412;-74
2021/08/13 06:24:23;;;;;;;11.63;10.00;;;;;;;28.03;41.98;101514.50;5079306;28;20349;-70
2021/08/13 06:26:48;;;;;;;11.53;10.33;;;;;;;28.42;41.67;101517.88;5068241;28;20272;-71
2021/08/13 06:29:13;;;;;;;12.33;10.87;;;;;;;29.38;39.78;101518.88;5078284;28;20440;-72
2021/08/13 06:31:38;;;;;;;10.27;9.30;;;;;;;30.16;37.11;101508.03;5080805;28;20176;-71
2021/08/13 06:34:04;;;;;;;11.80;9.03;;;;;;;30.14;37.03;101515.31;5091290;28;20574;-72
2021/08/13 06:36:29;;;;;;;8.70;7.90;;;;;;;30.73;35.56;101517.13;5073274;28;20207;-72
2021/08/13 06:38:55;;;;;;;8.70;8.00;;;;;;;30.90;35.11;101507.94;5063409;28;20215;-72
2021/08/13 06:41:20;;;;;;;10.77;7.30;;;;;;;30.04;36.79;101519.53;5072531;28;20174;-72
2021/08/13 06:43:46;;;;;;;9.43;8.20;;;;;;;31.24;34.57;101512.03;5069320;28;20197;-70
2021/08/13 06:46:11;;;;;;;8.67;7.87;;;;;;;31.47;34.23;101511.47;5062865;28;20200;-70
2021/08/13 06:48:36;;;;;;;8.93;7.60;;;;;;;31.78;33.67;101507.59;5059180;28;20165;-70
2021/08/13 06:51:02;;;;;;;8.93;7.73;;;;;;;32.14;33.19;101507.88;5060492;28;20201;-70
2021/08/13 06:53:27;;;;;;;8.00;7.40;;;;;;;31.37;34.49;101509.38;5075357;28;20209;-72
2021/08/13 06:55:53;;;;;;;9.63;8.83;;;;;;;32.24;32.97;101507.16;5063793;28;20256;-74
2021/08/13 06:58:18;;;;;;;8.20;7.50;;;;;;;30.12;37.40;101519.06;5079222;28;20180;-73
2021/08/13 07:00:43;;;;;;;11.37;10.13;;;;;;;29.28;38.67;101526.59;5079026;28;20175;-73
2021/08/13 07:03:09;;;;;;;9.27;8.57;;;;;;;28.55;40.53;101532.31;5078693;28;20168;-73
2021/08/13 07:05:34;;;;;;;11.13;9.80;;;;;;;28.43;41.07;101533.88;5078388;28;20480;-71
2021/08/13 07:08:10;;;;;;;16.37;8.73;;;;;;;28.55;40.44;101530.53;5059491;28;20254;-72
2021/08/13 07:10:36;;;;;;;9.90;8.97;;;;;;;29.63;38.45;101525.50;5079329;28;20181;-74
2021/08/13 07:13:02;;;;;;;10.00;9.00;;;;;;;30.83;36.13;101512.00;5075568;28;20604;-74
2021/08/13 07:15:27;;;;;;;8.83;8.13;;;;;;;31.82;34.16;101511.81;5073110;28;20542;-75
2021/08/13 07:17:52;;;;;;;9.27;8.47;;;;;;;32.01;33.68;101516.78;5066016;28;20180;-73
2021/08/13 07:20:18;;;;;;;8.50;7.80;;;;;;;31.85;33.95;101535.00;5078819;28;20176;-72
2021/08/13 07:22:43;;;;;;;8.57;7.80;;;;;;;31.40;34.79;101530.72;5072417;28;20199;-74
2021/08/13 07:25:09;;;;;;;10.63;8.33;;;;;;;31.40;35.17;101530.72;5074065;28;20197;-74
2021/08/13 07:27:34;;;;;;;9.23;8.30;;;;;;;30.65;35.85;101530.16;5075619;28;20250;-73
2021/08/13 07:30:00;;;;;;;8.60;7.70;;;;;;;30.52;36.69;101535.47;5058451;28;20181;-74
2021/08/13 07:32:25;;;;;;;8.97;8.27;;;;;;;31.13;36.46;101532.56;5058921;28;20547;-74
2021/08/13 07:34:50;;;;;;;9.43;8.63;;;;;;;31.64;34.72;101534.66;5074759;28;20238;-74
2021/08/13 07:37:16;;;;;;;9.30;8.47;;;;;;;32.07;33.98;101537.97;5060660;28;20416;-73
2021/08/13 07:39:41;;;;;;;10.20;9.37;;;;;;;31.69;33.99;101535.19;5059634;28;20204;-72
2021/08/13 07:42:07;;;;;;;9.83;8.93;;;;;;;31.83;33.79;101524.31;5063595;28;20187;-75
2021/08/13 07:44:32;;;;;;;9.47;8.67;;;;;;;33.16;32.45;101524.94;5058273;28;20205;-73
2021/08/13 07:46:57;;;;;;;9.93;9.03;;;;;;;32.97;31.86;101517.34;5061244;28;20185;-74
2021/08/13 07:49:23;;;;;;;9.00;8.30;;;;;;;32.85;32.31;101524.50;5057758;28;20235;-74
2021/08/13 07:51:48;;;;;;;8.33;7.60;;;;;;;33.09;32.18;101511.03;5057906;28;20204;-75
2021/08/13 07:54:13;;;;;;;9.23;8.43;;;;;;;33.94;31.04;101520.03;5059509;28;20587;-77
2021/08/13 07:56:39;;;;;;;8.90;8.20;;;;;;;33.12;32.60;101515.34;5067136;28;20203;-76
2021/08/13 07:59:04;;;;;;;9.10;8.40;;;;;;;32.89;32.80;101529.59;5072564;28;20448;-76
2021/08/13 08:01:29;;;;;;;9.70;8.90;;;;;;;34.82;30.64;101515.91;5058120;28;20177;-75
2021/08/13 08:03:55;;;;;;;8.50;7.60;;;;;;;33.97;30.83;101515.28;5057595;28;20237;-76
2021/08/13 08:06:20;;;;;;;8.77;7.97;;;;;;;34.10;30.40;101520.59;5058080;28;20170;-76
2021/08/13 08:08:45;;;;;;;8.70;7.90;;;;;;;35.52;29.02;101517.31;5058522;28;20542;-77
2021/08/13 08:11:10;;;;;;;9.10;8.20;;;;;;;34.65;29.32;101519.94;5057929;28;20563;-76
2021/08/13 08:13:36;;;;;;;9.03;7.83;;;;;;;33.64;31.93;101519.56;5057732;28;20201;-74
2021/08/13 08:16:03;;;;;;;9.70;8.47;;;;;;;34.87;30.25;101528.06;5058162;28;20433;-73
2021/08/13 08:18:31;;;;;;;8.37;7.50;;;;;;;34.77;29.48;101531.63;5057909;28;20173;-76
2021/08/13 08:20:57;;;;;;;8.13;7.47;;;;;;;33.64;31.87;101543.03;5057983;28;20660;-74
2021/08/13 08:23:22;;;;;;;8.63;7.90;;;;;;;33.54;32.01;101532.94;5057436;28;20546;-73
2021/08/13 08:25:47;;;;;;;10.83;8.10;;;;;;;34.10;30.85;101536.84;5058092;28;20176;-73
2021/08/13 08:28:13;;;;;;;8.27;7.50;;;;;;;32.80;32.87;101541.03;5057817;28;20173;-73
2021/08/13 08:30:38;;;;;;;9.10;8.30;;;;;;;33.21;31.80;101536.28;5057757;28;20508;-71
2021/08/13 08:33:03;;;;;;;9.00;7.73;;;;;;;33.22;31.52;101536.16;5057751;28;20201;-72
2021/08/13 08:35:29;;;;;;;8.60;7.80;;;;;;;32.22;34.10;101540.63;5057924;28;20212;-74
2021/08/13 08:37:56;;;;;;;9.90;9.13;;;;;;;33.16;32.88;101544.72;5057635;28;20176;-73
2021/08/13 08:40:25;;;;;;;8.03;7.33;;;;;;;31.90;34.08;101531.03;5057777;28;20189;-70
2021/08/13 08:42:52;;;;;;;9.77;8.87;;;;;;;33.46;31.98;101527.22;5058081;28;20487;-74
2021/08/13 08:45:17;;;;;;;11.33;8.23;;;;;;;33.79;31.78;101531.09;5057500;28;20415;-72
2021/08/13 08:47:43;;;;;;;9.33;8.43;;;;;;;33.55;31.61;101523.81;5060096;28;20416;-73
2021/08/13 08:50:09;;;;;;;9.27;8.37;;;;;;;33.53;31.11;101517.69;5061171;28;20429;-72
2021/08/13 08:52:36;;;;;;;9.40;8.17;;;;;;;33.33;32.84;101518.34;5060706;28;20499;-71
2021/08/13 08:55:01;;;;;;;11.70;8.83;;;;;;;33.59;31.46;101516.34;5060776;28;20528;-71
2021/08/13 08:57:29;;;;;;;10.43;9.50;;;;;;;34.31;30.67;101503.69;5077671;28;20461;-71
2021/08/13 08:59:56;;;;;;;9.37;8.40;;;;;;;32.85;33.12;101503.75;5080744;28;20260;-71
2021/08/13 09:02:21;;;;;;;9.73;8.90;;;;;;;33.38;31.54;101508.00;5081305;28;20656;-71
2021/08/13 09:04:46;;;;;;;9.60;8.60;;;;;;;33.15;32.75;101502.47;5081371;28;20413;-70
2021/08/13 09:07:12;;;;;;;12.40;8.40;;;;;;;32.77;33.32;101487.25;5081261;28;20179;-70
2021/08/13 09:09:37;;;;;;;9.73;8.80;;;;;;;32.91;33.08;101500.59;5081213;28;20173;-72
2021/08/13 09:12:03;;;;;;;11.23;8.47;;;;;;;33.07;32.62;101500.34;5081617;28;20558;-71
2021/08/13 09:14:40;;;;;;;9.50;8.70;;;;;;;32.57;33.10;101497.63;5080103;28;20232;-72
2021/08/13 09:17:07;;;;;;;9.70;8.43;;;;;;;33.64;32.10;101505.19;5081169;28;20177;-71
2021/08/13 09:19:47;;;;;;;8.77;8.07;;;;;;;33.87;31.91;101514.28;5080970;28;20740;-72
2021/08/13 09:22:15;;;;;;;9.10;8.20;;;;;;;33.71;31.53;101519.97;5081148;28;20411;-71
2021/08/13 09:24:42;;;;;;;8.60;7.80;;;;;;;32.63;34.13;101517.06;5080665;28;20516;-71
2021/08/13 09:27:15;;;;;;;9.40;8.60;;;;;;;32.96;32.86;101512.91;5080904;28;20464;-71
2021/08/13 09:29:41;;;;;;;8.63;7.93;;;;;;;33.01;33.57;101524.25;5080619;28;20521;-72
2021/08/13 09:32:07;;;;;;;9.27;8.27;;;;;;;33.37;32.35;101527.94;5080019;28;20419;-72
2021/08/13 09:34:33;;;;;;;9.07;8.37;;;;;;;32.49;33.72;101523.44;5080218;28;20577;-70
2021/08/13 09:36:59;;;;;;;10.17;8.53;;;;;;;33.10;33.57;101517.28;5080744;28;20179;-70
2021/08/13 09:39:26;;;;;;;9.60;8.57;;;;;;;32.78;32.83;101517.81;5080584;28;20494;-71
2021/08/13 09:41:53;;;;;;;9.10;8.40;;;;;;;31.47;34.74;101511.47;5080939;28;20184;-70
2021/08/13 09:44:28;;;;;;;13.33;12.23;;;;;;;32.75;33.10;101516.22;5080583;28;20415;-71
2021/08/13 09:46:59;;;;;;;9.03;8.23;;;;;;;31.85;34.86;101518.81;5080604;28;20453;-71
2021/08/13 09:49:25;;;;;;;9.33;8.37;;;;;;;32.83;32.66;101513.81;5080582;28;20419;-71
2021/08/13 09:51:51;;;;;;;11.87;10.30;;;;;;;33.87;30.96;101512.44;5080480;28;20472;-75
2021/08/13 09:54:16;;;;;;;11.63;10.43;;;;;;;33.50;31.05;101508.94;5080576;28;20275;-80
2021/08/13 09:56:41;;;;;;;10.20;9.30;;;;;;;33.22;32.09;101514.56;5080282;28;20511;-75
2021/08/13 09:59:15;;;;;;;10.00;9.10;;;;;;;32.24;33.70;101519.78;5079626;28;20164;-73
2021/08/13 10:01:49;;;;;;;8.93;8.13;;;;;;;32.62;34.00;101526.13;5080013;28;20166;-73
2021/08/13 10:04:16;;;;;;;9.80;9.00;;;;;;;32.59;32.71;101516.41;5080090;28;20858;-72
2021/08/13 10:06:43;;;;;;;9.10;8.30;;;;;;;33.37;32.08;101511.72;5080292;28;20411;-71
2021/08/13 10:09:23;;;;;;;9.43;8.40;;;;;;;32.36;33.34;101518.91;5080080;28;20403;-71
2021/08/13 10:12:03;;;;;;;9.47;8.67;;;;;;;32.00;34.21;101514.22;5079976;28;20425;-71
2021/08/13 10:14:38;;;;;;;10.20;9.27;;;;;;;33.15;33.11;101513.28;5079758;28;20860;-72
2021/08/13 10:17:11;;;;;;;9.20;7.97;;;;;;;32.21;34.17;101507.34;5079263;28;20476;-70
2021/08/13 10:19:42;;;;;;;9.80;8.80;;;;;;;32.17;34.16;101513.09;5079996;28;20487;-71
2021/08/13 10:22:07;;;;;;;9.20;8.30;;;;;;;32.64;32.91;101507.97;5080024;28;20426;-71
2021/08/13 10:24:34;;;;;;;9.87;8.97;;;;;;;32.78;32.77;101510.56;5079642;28;20467;-72
2021/08/13 10:27:01;;;;;;;9.50;8.60;;;;;;;33.26;32.75;101511.63;5079966;28;20169;-72
2021/08/13 10:29:27;;;;;;;9.67;8.80;;;;;;;32.68;33.85;101512.19;5080372;28;20423;-74
2021/08/13 10:31:54;;;;;;;9.97;9.07;;;;;;;32.84;32.05;101509.25;5080010;28;20412;-71
2021/08/13 10:34:19;;;;;;;10.80;9.07;;;;;;;33.06;32.47;101516.66;5078921;28;20469;-71
2021/08/13 10:36:45;;;;;;;11.87;8.90;;;;;;;32.60;33.43;101501.06;5080177;28;20494;-72
2021/08/13 10:39:12;;;;;;;9.90;9.00;;;;;;;31.94;34.61;101498.47;5078740;28;20161;-71
2021/08/13 10:41:40;;;;;;;10.80;9.50;;;;;;;32.44;32.14;101487.84;5078653;28;20256;-71
2021/08/13 10:44:08;;;;;;;10.20;9.30;;;;;;;32.26;33.58;101492.69;5079027;28;20442;-75
2021/08/13 10:46:35;;;;;;;9.37;8.57;;;;;;;31.93;35.14;101488.66;5078494;28;20419;-74
2021/08/13 10:49:01;;;;;;;9.23;8.37;;;;;;;31.07;35.30;101488.06;5078698;28;20426;-73
2021/08/13 10:51:28;;;;;;;9.70;8.70;;;;;;;32.79;33.96;101489.84;5079784;28;20407;-74
2021/08/13 10:54:05;;;;;;;9.23;8.43;;;;;;;31.88;34.77;101494.34;5079057;28;20200;-74
2021/08/13 10:56:39;;;;;;;9.50;8.60;;;;;;;31.80;34.94;101492.19;5078895;28;20436;-72
2021/08/13 10:59:04;;;;;;;9.33;8.20;;;;;;;31.20;35.98;101498.88;5079189;28;20422;-74
2021/08/13 11:01:29;;;;;;;8.43;7.57;;;;;;;31.61;34.85;101489.00;5079139;28;20415;-73
2021/08/13 11:03:55;;;;;;;8.97;8.17;;;;;;;31.31;35.84;101484.69;5079272;28;20526;-69
2021/08/13 11:06:39;;;;;;;9.10;8.30;;;;;;;32.03;34.15;101481.66;5079085;28;20165;-69
2021/08/13 11:09:05;;;;;;;8.90;8.20;;;;;;;32.33;33.92;101478.66;5078429;28;20168;-69
2021/08/13 11:11:52;;;;;;;9.10;8.20;;;;;;;31.19;35.94;101487.22;5078857;28;20423;-70